createdAt,value
2023-05-02T00:01:28.915Z,101956.52
2023-05-02T00:03:56.950Z,101959.34
2023-05-02T00:06:24.996Z,101958.31
2023-05-02T00:08:52.866Z,101961.76
2023-05-02T00:11:21.486Z,101961.98
2023-05-02T00:13:49.769Z,101961.87
2023-05-02T00:16:18.398Z,101957.96
2023-05-02T00:18:47.344Z,101955.19
2023-05-02T00:21:15.012Z,101958.52
2023-05-02T00:23:43.419Z,101959.61
2023-05-02T00:26:11.252Z,101958.86
2023-05-02T00:28:40.453Z,101955.66
2023-05-02T00:31:08.227Z,101949.52
2023-05-02T00:33:36.267Z,101949.38
2023-05-02T00:36:04.025Z,101952.71
2023-05-02T00:38:31.936Z,101953.77
2023-05-02T00:40:59.780Z,101952.95
2023-05-02T00:43:30.853Z,101957.23
2023-05-02T00:45:58.869Z,101953.36
2023-05-02T00:48:29.214Z,101960.61
2023-05-02T00:50:57.627Z,101952.34
2023-05-02T00:53:25.854Z,101954.97
2023-05-02T00:55:54.484Z,101959.10
2023-05-02T00:58:22.636Z,101958.52
2023-05-02T01:00:50.488Z,101961.84
2023-05-02T01:03:37.165Z,101964.85
2023-05-02T01:06:24.117Z,101969.00
2023-05-02T01:08:56.062Z,101967.75
2023-05-02T01:11:31.301Z,101973.64
2023-05-02T01:14:00.199Z,101979.27
2023-05-02T01:16:28.740Z,101985.45
2023-05-02T01:18:58.148Z,101991.56
2023-05-02T01:21:28.201Z,101995.44
2023-05-02T01:23:56.469Z,101999.64
2023-05-02T01:26:32.956Z,102000.08
2023-05-02T01:29:02.035Z,101996.41
2023-05-02T01:31:31.966Z,101996.71
2023-05-02T01:34:01.112Z,101993.93
2023-05-02T01:36:31.387Z,101988.16
2023-05-02T01:39:00.773Z,101988.49
2023-05-02T01:41:30.260Z,101985.62
2023-05-02T01:43:58.967Z,101991.23
2023-05-02T01:46:28.629Z,101993.29
2023-05-02T01:48:58.158Z,101996.64
2023-05-02T01:51:30.748Z,101994.83
2023-05-02T01:54:04.558Z,102000.05
2023-05-02T01:56:34.158Z,102002.89
2023-05-02T01:59:09.091Z,102002.63
2023-05-02T02:01:38.113Z,101999.58
2023-05-02T02:04:06.823Z,102007.35
2023-05-02T02:06:35.379Z,102015.48
2023-05-02T02:09:04.075Z,102022.06
2023-05-02T02:11:35.996Z,102022.52
2023-05-02T02:14:08.686Z,102029.30
2023-05-02T02:16:38.429Z,102029.27
2023-05-02T02:19:08.610Z,102030.55
2023-05-02T02:21:38.591Z,102028.88
2023-05-02T02:24:07.925Z,102031.84
2023-05-02T02:26:36.742Z,102039.55
2023-05-02T02:29:04.798Z,102041.29
2023-05-02T02:31:36.170Z,102043.89
2023-05-02T02:34:04.717Z,102045.46
2023-05-02T02:36:57.642Z,102049.59
2023-05-02T02:39:36.093Z,102055.67
2023-05-02T02:42:15.978Z,102056.79
2023-05-02T02:44:55.079Z,102060.70
2023-05-02T02:47:42.222Z,102065.56
2023-05-02T02:50:29.486Z,102069.67
2023-05-02T02:53:09.851Z,102075.73
2023-05-02T02:55:46.297Z,102073.14
2023-05-02T02:58:20.832Z,102074.60
2023-05-02T03:00:49.853Z,102075.60
2023-05-02T03:03:19.020Z,102080.06
2023-05-02T03:05:47.463Z,102083.15
2023-05-02T03:08:15.491Z,102087.15
2023-05-02T03:10:43.559Z,102086.39
2023-05-02T03:13:12.535Z,102086.42
2023-05-02T03:15:52.436Z,102090.92
2023-05-02T03:18:20.674Z,102090.68
2023-05-02T03:20:48.511Z,102093.46
2023-05-02T03:23:16.592Z,102095.17
2023-05-02T03:25:44.566Z,102093.11
2023-05-02T03:28:15.098Z,102092.89
2023-05-02T03:30:42.867Z,102091.17
2023-05-02T03:33:11.292Z,102092.64
2023-05-02T03:35:39.716Z,102092.32
2023-05-02T03:38:07.887Z,102092.75
2023-05-02T03:40:35.748Z,102097.77
2023-05-02T03:43:03.459Z,102097.66
2023-05-02T03:45:31.607Z,102095.79
2023-05-02T03:47:59.834Z,102098.60
2023-05-02T03:50:28.022Z,102102.77
2023-05-02T03:52:55.802Z,102101.16
2023-05-02T03:55:23.665Z,102105.81
2023-05-02T03:57:51.566Z,102108.91
2023-05-02T04:00:19.735Z,102110.25
2023-05-02T04:02:48.081Z,102112.14
2023-05-02T04:05:16.362Z,102117.38
2023-05-02T04:07:44.432Z,102116.04
2023-05-02T04:10:16.808Z,102114.02
2023-05-02T04:12:44.673Z,102116.94
2023-05-02T04:15:12.666Z,102118.80
2023-05-02T04:17:40.593Z,102121.05
2023-05-02T04:20:10.033Z,102119.38
2023-05-02T04:22:39.735Z,102119.21
2023-05-02T04:25:09.124Z,102118.88
2023-05-02T04:27:37.552Z,102119.38
2023-05-02T04:30:07.554Z,102120.38
2023-05-02T04:32:35.450Z,102120.30
2023-05-02T04:35:04.487Z,102116.64
2023-05-02T04:37:32.656Z,102120.08
2023-05-02T04:40:01.176Z,102123.33
2023-05-02T04:42:29.478Z,102124.42
2023-05-02T04:44:57.533Z,102126.79
2023-05-02T04:47:25.714Z,102127.83
2023-05-02T04:49:53.916Z,102129.46
2023-05-02T04:52:21.705Z,102133.02
2023-05-02T04:54:49.364Z,102134.02
2023-05-02T04:57:17.415Z,102141.15
2023-05-02T04:59:45.580Z,102151.62
2023-05-02T05:02:13.412Z,102156.52
2023-05-02T05:04:41.508Z,102159.43
2023-05-02T05:07:10.310Z,102164.66
2023-05-02T05:09:38.064Z,102169.75
2023-05-02T05:12:05.820Z,102175.70
2023-05-02T05:14:34.315Z,102175.70
2023-05-02T05:17:03.545Z,102177.42
2023-05-02T05:19:32.003Z,102181.06
2023-05-02T05:21:59.963Z,102184.48
2023-05-02T05:24:27.723Z,102183.40
2023-05-02T05:26:57.132Z,102185.13
2023-05-02T05:29:25.099Z,102182.30
2023-05-02T05:31:53.410Z,102186.34
2023-05-02T05:34:21.340Z,102186.60
2023-05-02T05:36:49.541Z,102189.52
2023-05-02T05:39:17.243Z,102189.85
2023-05-02T05:41:45.061Z,102192.86
2023-05-02T05:44:12.808Z,102196.70
2023-05-02T05:46:40.908Z,102195.58
2023-05-02T05:49:08.947Z,102201.89
2023-05-02T05:51:37.219Z,102199.18
2023-05-02T05:54:05.228Z,102200.52
2023-05-02T05:56:33.360Z,102204.83
2023-05-02T05:59:01.739Z,102208.40
2023-05-02T06:01:29.919Z,102211.98
2023-05-02T06:03:58.187Z,102219.64
2023-05-02T06:06:27.760Z,102217.04
2023-05-02T06:08:55.465Z,102215.56
2023-05-02T06:11:26.396Z,102214.80
2023-05-02T06:13:54.160Z,102216.34
2023-05-02T06:16:22.352Z,102218.71
2023-05-02T06:18:51.064Z,102220.89
2023-05-02T06:21:19.383Z,102227.65
2023-05-02T06:23:47.234Z,102230.44
2023-05-02T06:26:15.327Z,102235.52
2023-05-02T06:28:43.262Z,102237.71
2023-05-02T06:31:11.247Z,102241.20
2023-05-02T06:33:39.128Z,102238.39
2023-05-02T06:36:06.996Z,102238.67
2023-05-02T06:38:36.422Z,102243.09
2023-05-02T06:41:04.400Z,102240.20
2023-05-02T06:43:33.153Z,102242.05
2023-05-02T06:46:01.160Z,102241.41
2023-05-02T06:48:29.297Z,102246.48
2023-05-02T06:50:57.048Z,102247.13
2023-05-02T06:53:24.990Z,102248.92
2023-05-02T06:55:53.710Z,102251.83
2023-05-02T06:58:21.575Z,102252.48
2023-05-02T07:00:50.502Z,102251.88
2023-05-02T07:03:18.428Z,102251.23
2023-05-02T07:05:47.596Z,102250.27
2023-05-02T07:08:15.927Z,102250.45
2023-05-02T07:10:43.992Z,102249.55
2023-05-02T07:13:12.055Z,102250.30
2023-05-02T07:15:39.819Z,102250.09
2023-05-02T07:18:07.766Z,102246.86
2023-05-02T07:20:35.599Z,102248.21
2023-05-02T07:23:03.302Z,102248.33
2023-05-02T07:25:33.803Z,102248.23
2023-05-02T07:28:03.847Z,102248.90
2023-05-02T07:30:33.063Z,102253.65
2023-05-02T07:33:01.612Z,102255.70
2023-05-02T07:35:29.402Z,102257.38
2023-05-02T07:37:59.797Z,102256.23
2023-05-02T07:40:28.604Z,102262.59
2023-05-02T07:42:58.347Z,102259.36
2023-05-02T07:45:26.010Z,102263.78
2023-05-02T07:47:53.879Z,102265.85
2023-05-02T07:50:22.637Z,102267.23
2023-05-02T07:52:50.946Z,102270.63
2023-05-02T07:55:18.773Z,102268.67
2023-05-02T07:57:46.847Z,102265.71
2023-05-02T08:00:15.159Z,102267.05
2023-05-02T08:02:43.282Z,102269.94
2023-05-02T08:05:13.198Z,102268.56
2023-05-02T08:07:41.602Z,102275.80
2023-05-02T08:10:10.545Z,102278.69
2023-05-02T08:12:42.008Z,102283.04
2023-05-02T08:15:12.190Z,102283.25
2023-05-02T08:17:40.517Z,102277.79
2023-05-02T08:20:11.968Z,102283.27
2023-05-02T08:22:39.728Z,102285.02
2023-05-02T08:25:07.718Z,102286.02
2023-05-02T08:27:36.056Z,102284.38
2023-05-02T08:30:07.804Z,102288.92
2023-05-02T08:32:37.232Z,102290.92
2023-05-02T08:35:05.519Z,102297.63
2023-05-02T08:37:33.508Z,102304.36
2023-05-02T08:40:01.471Z,102305.23
2023-05-02T08:42:33.124Z,102305.12
2023-05-02T08:45:02.649Z,102310.32
2023-05-02T08:47:31.949Z,102315.67
2023-05-02T08:50:00.632Z,102320.16
2023-05-02T08:52:29.904Z,102322.80
2023-05-02T08:54:58.822Z,102329.27
2023-05-02T08:57:29.986Z,102332.07
2023-05-02T08:59:58.315Z,102334.20
2023-05-02T09:02:53.587Z,102334.98
2023-05-02T09:05:23.944Z,102327.89
2023-05-02T09:07:52.307Z,102328.47
2023-05-02T09:10:21.928Z,102327.30
2023-05-02T09:12:49.662Z,102325.98
2023-05-02T09:15:20.753Z,102323.61
2023-05-02T09:17:49.444Z,102324.50
2023-05-02T09:20:17.694Z,102326.52
2023-05-02T09:22:49.552Z,102329.59
2023-05-02T09:25:17.650Z,102332.95
2023-05-02T09:27:52.082Z,102332.65
2023-05-02T09:30:22.033Z,102327.30
2023-05-02T09:32:55.226Z,102331.76
2023-05-02T09:35:26.185Z,102333.38
2023-05-02T09:37:54.868Z,102339.67
2023-05-02T09:40:23.501Z,102338.49
2023-05-02T09:42:51.730Z,102335.07
2023-05-02T09:45:20.202Z,102338.67
2023-05-02T09:47:48.373Z,102344.31
2023-05-02T09:50:32.992Z,102346.22
2023-05-02T09:53:03.141Z,102346.82
2023-05-02T09:55:37.531Z,102342.30
2023-05-02T09:58:21.077Z,102345.31
2023-05-02T10:00:55.948Z,102342.34
2023-05-02T10:03:29.300Z,102348.28
2023-05-02T10:06:04.173Z,102346.91
2023-05-02T10:08:35.781Z,102349.23
2023-05-02T10:11:11.033Z,102350.01
2023-05-02T10:13:45.132Z,102349.80
2023-05-02T10:16:20.546Z,102347.92
2023-05-02T10:18:53.154Z,102350.12
2023-05-02T10:21:29.762Z,102347.79
2023-05-02T10:24:03.848Z,102353.09
2023-05-02T10:26:35.914Z,102350.79
2023-05-02T10:31:59.134Z,102348.19
2023-05-02T10:34:39.515Z,102354.31
2023-05-02T10:37:08.486Z,102356.98
2023-05-02T10:39:36.816Z,102357.20
2023-05-02T10:42:28.851Z,102361.49
2023-05-02T10:45:03.492Z,102358.55
2023-05-02T10:47:36.593Z,102358.66
2023-05-02T10:50:09.943Z,102360.15
2023-05-02T10:52:41.658Z,102361.10
2023-05-02T10:55:18.516Z,102362.56
2023-05-02T10:57:59.692Z,102360.88
2023-05-02T11:00:35.181Z,102364.63
2023-05-02T11:03:56.534Z,102370.40
2023-05-02T11:06:35.923Z,102369.89
2023-05-02T11:09:25.451Z,102368.94
2023-05-02T11:12:10.005Z,102373.64
2023-05-02T11:14:39.306Z,102376.02
2023-05-02T11:20:27.669Z,102377.71
2023-05-02T11:23:02.718Z,102381.04
2023-05-02T11:25:54.338Z,102381.64
2023-05-02T11:28:38.686Z,102384.35
2023-05-02T11:31:10.089Z,102384.43
2023-05-02T11:33:38.323Z,102385.64
2023-05-02T11:36:14.089Z,102380.28
2023-05-02T11:38:43.165Z,102383.33
2023-05-02T11:41:12.871Z,102381.91
2023-05-02T11:47:18.952Z,102375.75
2023-05-02T11:50:31.689Z,102377.11
2023-05-02T11:53:01.083Z,102380.21
2023-05-02T11:55:29.353Z,102382.20
2023-05-02T11:58:00.597Z,102385.54
2023-05-02T12:00:29.906Z,102393.39
2023-05-02T12:03:01.244Z,102399.46
2023-05-02T12:05:35.686Z,102403.65
2023-05-02T12:08:09.181Z,102400.23
2023-05-02T12:10:59.478Z,102400.27
2023-05-02T12:13:50.533Z,102407.10
2023-05-02T12:16:38.992Z,102405.65
2023-05-02T12:19:07.685Z,102399.80
2023-05-02T12:21:36.501Z,102408.29
2023-05-02T12:24:09.396Z,102420.52
2023-05-02T12:26:41.384Z,102426.31
2023-05-02T12:29:10.644Z,102419.98
2023-05-02T12:32:01.340Z,102419.59
2023-05-02T12:34:40.569Z,102418.17
2023-05-02T12:37:16.121Z,102415.52
2023-05-02T12:39:56.130Z,102420.39
2023-05-02T12:42:33.331Z,102418.02
2023-05-02T12:45:02.666Z,102419.06
2023-05-02T12:51:00.797Z,102417.95
2023-05-02T12:53:44.613Z,102413.96
2023-05-02T12:56:20.657Z,102405.06
2023-05-02T12:58:50.223Z,102409.81
2023-05-02T13:01:21.323Z,102413.61
2023-05-02T13:03:51.718Z,102412.10
2023-05-02T13:06:22.743Z,102410.80
2023-05-02T13:08:52.470Z,102417.56
2023-05-02T13:11:23.741Z,102419.23
2023-05-02T13:13:55.394Z,102415.66
2023-05-02T13:16:25.437Z,102414.52
2023-05-02T13:19:00.637Z,102412.57
2023-05-02T13:21:34.129Z,102410.39
2023-05-02T13:24:15.275Z,102405.41
2023-05-02T13:26:43.694Z,102402.21
2023-05-02T13:29:20.364Z,102408.77
2023-05-02T13:31:49.117Z,102409.41
2023-05-02T13:34:18.482Z,102410.55
2023-05-02T13:36:48.482Z,102409.88
2023-05-02T13:39:19.829Z,102405.86
2023-05-02T13:42:01.801Z,102406.33
2023-05-02T13:44:32.710Z,102404.37
2023-05-02T13:47:01.987Z,102406.15
2023-05-02T13:49:33.106Z,102409.75
2023-05-02T13:52:39.082Z,102417.62
2023-05-02T14:02:58.988Z,102408.16
2023-05-02T14:05:31.111Z,102411.23
2023-05-02T14:08:00.664Z,102416.54
2023-05-02T14:10:32.321Z,102419.37
2023-05-02T14:13:01.375Z,102420.14
2023-05-02T14:15:33.838Z,102421.95
2023-05-02T14:18:17.228Z,102416.28
2023-05-02T14:20:51.187Z,102410.44
2023-05-02T14:23:22.952Z,102408.63
2023-05-02T14:26:05.104Z,102414.00
2023-05-02T14:28:34.527Z,102408.97
2023-05-02T14:31:05.606Z,102404.35
2023-05-02T14:33:36.062Z,102409.36
2023-05-02T14:36:08.224Z,102408.89
2023-05-02T14:38:37.224Z,102406.73
2023-05-02T14:41:06.979Z,102406.73
2023-05-02T14:43:36.851Z,102402.27
2023-05-02T14:46:08.814Z,102398.48
2023-05-02T14:48:37.703Z,102399.58
2023-05-02T14:51:10.734Z,102396.85
2023-05-02T14:53:48.805Z,102398.11
2023-05-02T14:57:23.296Z,102397.33
2023-05-02T15:08:08.347Z,102387.81
2023-05-02T15:14:27.231Z,102379.62
2023-05-02T15:20:25.579Z,102374.35
2023-05-02T15:23:16.826Z,102369.64
2023-05-02T15:26:10.786Z,102371.20
2023-05-02T15:32:53.506Z,102364.57
2023-05-02T15:35:56.825Z,102373.07
2023-05-02T15:38:30.965Z,102369.29
2023-05-02T15:41:15.554Z,102372.91
2023-05-02T15:43:49.054Z,102372.08
2023-05-02T15:50:10.944Z,102376.66
2023-05-02T15:52:48.792Z,102377.78
2023-05-02T15:55:21.594Z,102378.89
2023-05-02T15:57:57.355Z,102379.33
2023-05-02T16:00:28.785Z,102377.01
2023-05-02T16:03:03.802Z,102376.33
2023-05-02T16:05:33.114Z,102372.99
2023-05-02T16:08:01.392Z,102371.23
2023-05-02T16:11:02.042Z,102370.83
2023-05-02T16:13:30.306Z,102368.73
2023-05-02T16:16:22.489Z,102371.55
2023-05-02T16:18:52.127Z,102370.80
2023-05-02T16:21:27.471Z,102365.73
2023-05-02T16:23:56.307Z,102366.23
2023-05-02T16:26:25.218Z,102363.08
2023-05-02T16:28:57.076Z,102362.42
2023-05-02T16:31:29.949Z,102365.17
2023-05-02T16:33:59.010Z,102367.33
2023-05-02T16:36:36.382Z,102371.14
2023-05-02T16:39:04.898Z,102370.69
2023-05-02T16:41:35.092Z,102368.70
2023-05-02T16:44:07.975Z,102364.90
2023-05-02T16:52:50.225Z,102371.13
2023-05-02T16:55:28.804Z,102372.93
2023-05-02T17:02:28.324Z,102366.77
2023-05-02T17:05:09.649Z,102360.56
2023-05-02T17:11:37.068Z,102346.68
2023-05-02T17:14:05.620Z,102344.94
2023-05-02T17:16:34.252Z,102339.19
2023-05-02T17:19:11.757Z,102338.14
2023-05-02T17:22:10.755Z,102335.73
2023-05-02T17:25:38.469Z,102340.92
2023-05-02T17:28:11.223Z,102339.80
2023-05-02T17:30:48.593Z,102341.44
2023-05-02T17:33:36.856Z,102342.52
2023-05-02T17:39:09.372Z,102344.45
2023-05-02T17:41:49.624Z,102342.14
2023-05-02T17:44:18.660Z,102341.92
2023-05-02T17:46:48.293Z,102344.14
2023-05-02T17:49:22.068Z,102340.81
2023-05-02T17:51:51.017Z,102342.36
2023-05-02T17:54:23.896Z,102335.67
2023-05-02T17:57:11.142Z,102336.63
2023-05-02T17:59:59.944Z,102338.25
2023-05-02T18:02:40.462Z,102338.46
2023-05-02T18:05:16.122Z,102336.84
2023-05-02T18:07:44.937Z,102336.23
2023-05-02T18:10:13.607Z,102332.77
2023-05-02T18:13:08.526Z,102330.77
2023-05-02T18:18:47.428Z,102333.79
2023-05-02T18:21:43.153Z,102333.64
2023-05-02T18:24:19.136Z,102338.73
2023-05-02T18:27:02.238Z,102340.59
2023-05-02T18:29:36.224Z,102338.73
2023-05-02T18:36:28.312Z,102334.98
2023-05-02T18:39:00.980Z,102338.89
2023-05-02T18:41:53.887Z,102339.69
2023-05-02T18:44:25.710Z,102340.50
2023-05-02T18:46:54.118Z,102350.23
2023-05-02T18:49:28.816Z,102355.34
2023-05-02T18:52:00.914Z,102355.27
2023-05-02T18:54:43.043Z,102361.64
2023-05-02T18:57:28.115Z,102366.45
2023-05-02T19:00:00.080Z,102365.77
2023-05-02T19:02:38.709Z,102369.02
2023-05-02T19:05:09.970Z,102368.48
2023-05-02T19:07:42.004Z,102372.17
2023-05-02T19:10:11.491Z,102376.50
2023-05-02T19:13:07.944Z,102378.52
2023-05-02T19:15:47.332Z,102382.08
2023-05-02T19:18:46.905Z,102384.41
2023-05-02T19:21:16.892Z,102386.10
2023-05-02T19:27:19.173Z,102392.31
2023-05-02T19:29:54.745Z,102391.11
2023-05-02T19:32:33.502Z,102392.38
2023-05-02T19:35:27.176Z,102397.17
2023-05-02T19:37:56.403Z,102397.15
2023-05-02T19:41:13.674Z,102400.20
2023-05-02T19:44:03.934Z,102399.02
2023-05-02T19:50:23.428Z,102409.45
2023-05-02T19:56:07.894Z,102412.88
2023-05-02T20:00:18.472Z,102414.16
2023-05-02T20:01:54.537Z,102421.36
2023-05-02T20:04:27.572Z,102437.98
2023-05-02T20:07:11.753Z,102439.57
2023-05-02T20:10:29.301Z,102447.38
2023-05-02T20:12:45.534Z,102452.57
2023-05-02T20:15:18.573Z,102455.54
2023-05-02T20:25:42.867Z,102464.01
2023-05-02T20:31:29.633Z,102460.89
2023-05-02T20:34:01.313Z,102463.54
2023-05-02T20:36:30.138Z,102467.39
2023-05-02T20:39:52.409Z,102471.38
2023-05-02T20:42:44.246Z,102475.89
2023-05-02T20:45:17.511Z,102476.00
2023-05-02T20:48:06.823Z,102480.89
2023-05-02T20:58:38.728Z,102499.05
2023-05-02T21:01:37.743Z,102500.98
2023-05-02T21:04:13.865Z,102496.04
2023-05-02T21:45:24.920Z,102478.73
2023-05-02T21:59:21.900Z,102478.42
2023-05-02T22:02:02.596Z,102483.95
2023-05-02T22:04:33.711Z,102489.92
2023-05-02T22:07:06.399Z,102484.34
2023-05-02T22:09:41.127Z,102486.50
2023-05-02T22:12:11.441Z,102489.80
2023-05-02T22:14:46.270Z,102488.27
2023-05-02T22:17:22.936Z,102483.98
2023-05-02T22:19:54.312Z,102491.16
2023-05-02T22:22:23.065Z,102507.70
2023-05-02T22:24:52.172Z,102510.15
2023-05-02T22:27:21.203Z,102503.96
2023-05-02T22:29:57.837Z,102496.19
2023-05-02T22:32:37.402Z,102493.07
2023-05-02T22:35:07.712Z,102492.04
2023-05-02T22:41:44.717Z,102501.80
2023-05-02T22:44:16.385Z,102500.85
2023-05-02T22:47:15.168Z,102493.08
2023-05-02T22:50:17.317Z,102488.92
2023-05-02T22:53:30.450Z,102485.21
2023-05-02T22:56:39.880Z,102485.73
2023-05-02T22:59:17.502Z,102480.90
2023-05-02T23:02:18.423Z,102475.36
2023-05-02T23:08:33.435Z,102471.14
2023-05-02T23:11:30.998Z,102469.98
2023-05-02T23:19:53.473Z,102469.38
2023-05-02T23:21:20.934Z,102479.01
2023-05-02T23:23:04.236Z,102466.21
2023-05-02T23:27:31.017Z,102498.43
2023-05-02T23:30:01.014Z,102496.98
2023-05-02T23:32:43.357Z,102499.23
2023-05-02T23:35:18.275Z,102504.60
2023-05-02T23:37:55.346Z,102508.21
2023-05-02T23:40:46.560Z,102511.27
2023-05-02T23:43:24.216Z,102516.08
2023-05-02T23:49:16.963Z,102524.23
2023-05-02T23:52:06.083Z,102527.25
2023-05-02T23:55:19.876Z,102528.77
2023-05-02T23:57:49.738Z,102532.61
